Brewster, Nebraska
Current Conditions -  °F | °C
As of 6:15 PM on Friday 21 Nov 2014 (Local Time) from KTIF Reporting Station
Clear Clear  
Wind Chill: 40°   Ceiling: Unl
Heat Index: 46°   Visibility: 10mi
Dew Point: 29°   Wind: 10mph
Humidity: 53%   Direction: 200°SSW
Pressure: 29.87"   Gusts: NA
Location:  41.94°N, 99.86°W
Report Text: KTIF 220015Z AUTO 20009KT 10SM CLR 08/M01 A2987 RMK AO2 T00751015
Loading
Personal Weather Stations






























Interactive Weather Map New forecast layout! Learn more

10-Day Weather Forecast

Advertisements
Track Severe Weather on mobile